RNG841 HKWJ-HKMO
Flight info
| Callsign | RNG841 |
|---|---|
| Flight time | 1h 9m |
| Altitude | 22000 |
| Route | ENORA DCT EVOGO DCT EGVOM |
| Aircraft | DH8D/M-SDE2E3FGRY/H |
Departure
| Time | 2026-04-23 16:31 |
|---|---|
| Airport | Wajir Airport (HKWJ) |
Arrival
| Time | 2026-04-23 17:41 |
|---|---|
| Airport | Moi International Airport (HKMO) |
| Time | Latitude | Longitude | Altitude | Speed | Heading |
|---|---|---|---|---|---|
| 2026-04-23 16:25 | 1.74288 | 40.08346 | 842 ft | 0 kts | 62° |
| 2026-04-23 16:25 | 1.74288 | 40.08347 | 842 ft | 0 kts | 62° |
| 2026-04-23 16:28 | 1.74292 | 40.08354 | 842 ft | 2 kts | 62° |
| 2026-04-23 16:28 | 1.74299 | 40.08368 | 842 ft | 2 kts | 62° |
| 2026-04-23 16:29 | 1.74308 | 40.08382 | 842 ft | 2 kts | 58° |
| 2026-04-23 16:29 | 1.74318 | 40.08397 | 842 ft | 4 kts | 57° |
| 2026-04-23 16:29 | 1.74336 | 40.08423 | 842 ft | 5 kts | 52° |
| 2026-04-23 16:29 | 1.74357 | 40.08450 | 842 ft | 0 kts | 59° |
| 2026-04-23 16:30 | 1.74357 | 40.08453 | 842 ft | 1 kts | 100° |
| 2026-04-23 16:30 | 1.74353 | 40.08459 | 842 ft | 1 kts | 131° |
| 2026-04-23 16:30 | 1.74342 | 40.08468 | 842 ft | 5 kts | 143° |
| 2026-04-23 16:30 | 1.74263 | 40.08521 | 842 ft | 38 kts | 148° |
| 2026-04-23 16:31 | 1.73807 | 40.08827 | 843 ft | 116 kts | 147° |
| 2026-04-23 16:31 | 1.73003 | 40.09368 | 897 ft | 155 kts | 149° |
| 2026-04-23 16:31 | 1.72084 | 40.09965 | 1305 ft | 160 kts | 148° |
| 2026-04-23 16:31 | 1.71179 | 40.10602 | 1793 ft | 165 kts | 145° |
| 2026-04-23 16:32 | 1.70230 | 40.11312 | 2218 ft | 178 kts | 144° |
| 2026-04-23 16:32 | 1.69162 | 40.12127 | 2439 ft | 207 kts | 144° |
| 2026-04-23 16:32 | 1.67965 | 40.13006 | 3065 ft | 216 kts | 147° |
| 2026-04-23 16:32 | 1.66634 | 40.13610 | 3834 ft | 216 kts | 171° |
| 2026-04-23 16:33 | 1.65110 | 40.13587 | 4359 ft | 229 kts | 184° |
| 2026-04-23 16:33 | 1.63497 | 40.13501 | 5021 ft | 234 kts | 184° |
| 2026-04-23 16:33 | 1.61963 | 40.13458 | 6140 ft | 219 kts | 181° |
| 2026-04-23 16:33 | 1.60479 | 40.13498 | 6988 ft | 218 kts | 180° |
| 2026-04-23 16:34 | 1.58967 | 40.13572 | 7725 ft | 221 kts | 179° |
| 2026-04-23 16:34 | 1.57449 | 40.13670 | 8561 ft | 220 kts | 179° |
| 2026-04-23 16:34 | 1.55935 | 40.13763 | 9308 ft | 223 kts | 178° |
| 2026-04-23 16:34 | 1.54388 | 40.13846 | 10023 ft | 227 kts | 178° |
| 2026-04-23 16:35 | 1.52812 | 40.13916 | 10734 ft | 231 kts | 179° |
| 2026-04-23 16:35 | 1.51217 | 40.13840 | 11432 ft | 234 kts | 184° |
| 2026-04-23 16:35 | 1.49552 | 40.13703 | 11891 ft | 249 kts | 184° |
| 2026-04-23 16:35 | 1.47814 | 40.13536 | 12421 ft | 257 kts | 186° |
| 2026-04-23 16:36 | 1.46023 | 40.13349 | 13038 ft | 261 kts | 186° |
| 2026-04-23 16:36 | 1.44224 | 40.13175 | 13655 ft | 263 kts | 185° |
| 2026-04-23 16:36 | 1.42404 | 40.13005 | 14252 ft | 266 kts | 185° |
| 2026-04-23 16:36 | 1.40570 | 40.12836 | 14822 ft | 269 kts | 186° |
| 2026-04-23 16:37 | 1.38715 | 40.12667 | 15376 ft | 271 kts | 186° |
| 2026-04-23 16:37 | 1.36842 | 40.12497 | 15909 ft | 274 kts | 186° |
| 2026-04-23 16:37 | 1.34936 | 40.12324 | 16431 ft | 276 kts | 186° |
| 2026-04-23 16:37 | 1.33030 | 40.12151 | 16934 ft | 278 kts | 186° |
| 2026-04-23 16:38 | 1.31110 | 40.11977 | 17420 ft | 280 kts | 186° |
| 2026-04-23 16:38 | 1.29176 | 40.11802 | 17890 ft | 282 kts | 186° |
| 2026-04-23 16:38 | 1.27226 | 40.11625 | 18339 ft | 285 kts | 187° |
| 2026-04-23 16:38 | 1.25259 | 40.11446 | 18779 ft | 287 kts | 187° |
| 2026-04-23 16:39 | 1.23280 | 40.11267 | 19208 ft | 288 kts | 187° |
| 2026-04-23 16:39 | 1.21277 | 40.11085 | 19626 ft | 290 kts | 187° |
| 2026-04-23 16:39 | 1.19270 | 40.10904 | 20028 ft | 292 kts | 187° |
| 2026-04-23 16:39 | 1.17254 | 40.10721 | 20418 ft | 293 kts | 187° |
| 2026-04-23 16:40 | 1.15234 | 40.10538 | 20794 ft | 295 kts | 187° |
| 2026-04-23 16:40 | 1.13196 | 40.10353 | 21156 ft | 296 kts | 188° |
| 2026-04-23 16:40 | 1.11149 | 40.10168 | 21516 ft | 298 kts | 188° |
| 2026-04-23 16:40 | 1.09098 | 40.09983 | 21882 ft | 298 kts | 188° |
| 2026-04-23 16:41 | 1.07031 | 40.09796 | 22246 ft | 298 kts | 188° |
| 2026-04-23 16:41 | 1.04981 | 40.09610 | 22591 ft | 298 kts | 188° |
| 2026-04-23 16:41 | 1.02928 | 40.09424 | 22932 ft | 298 kts | 189° |
| 2026-04-23 16:41 | 1.00876 | 40.09238 | 23258 ft | 298 kts | 189° |
| 2026-04-23 16:42 | 0.98825 | 40.09052 | 23568 ft | 298 kts | 189° |
| 2026-04-23 16:42 | 0.96775 | 40.08866 | 23869 ft | 298 kts | 189° |
| 2026-04-23 16:42 | 0.94701 | 40.08676 | 23989 ft | 305 kts | 189° |
| 2026-04-23 16:42 | 0.92551 | 40.08479 | 24008 ft | 314 kts | 189° |
| 2026-04-23 16:43 | 0.90357 | 40.08280 | 24010 ft | 323 kts | 189° |
| 2026-04-23 16:43 | 0.88107 | 40.08076 | 24007 ft | 330 kts | 189° |
| 2026-04-23 16:43 | 0.85802 | 40.07867 | 24006 ft | 337 kts | 189° |
| 2026-04-23 16:43 | 0.83458 | 40.07655 | 24004 ft | 343 kts | 189° |
| 2026-04-23 16:44 | 0.81077 | 40.07439 | 24003 ft | 348 kts | 188° |
| 2026-04-23 16:44 | 0.78663 | 40.07221 | 24002 ft | 352 kts | 188° |
| 2026-04-23 16:44 | 0.76207 | 40.06998 | 24001 ft | 356 kts | 188° |
| 2026-04-23 16:44 | 0.73743 | 40.06775 | 24000 ft | 359 kts | 188° |
| 2026-04-23 16:45 | 0.71256 | 40.06550 | 24000 ft | 362 kts | 188° |
| 2026-04-23 16:45 | 0.68758 | 40.06324 | 23999 ft | 364 kts | 188° |
| 2026-04-23 16:45 | 0.66244 | 40.06096 | 23999 ft | 366 kts | 188° |
| 2026-04-23 16:45 | 0.63714 | 40.05867 | 23998 ft | 368 kts | 188° |
| 2026-04-23 16:46 | 0.61179 | 40.05637 | 23998 ft | 369 kts | 188° |
| 2026-04-23 16:46 | 0.58610 | 40.05404 | 23998 ft | 370 kts | 188° |
| 2026-04-23 16:46 | 0.56060 | 40.05174 | 23998 ft | 371 kts | 188° |
| 2026-04-23 16:46 | 0.53497 | 40.04941 | 23998 ft | 372 kts | 188° |
| 2026-04-23 16:47 | 0.50935 | 40.04709 | 23997 ft | 372 kts | 188° |
| 2026-04-23 16:47 | 0.48365 | 40.04477 | 23997 ft | 373 kts | 188° |
| 2026-04-23 16:47 | 0.45793 | 40.04243 | 23997 ft | 373 kts | 188° |
| 2026-04-23 16:47 | 0.43216 | 40.04010 | 23997 ft | 374 kts | 188° |
| 2026-04-23 16:48 | 0.40617 | 40.03775 | 23997 ft | 374 kts | 188° |
| 2026-04-23 16:48 | 0.38035 | 40.03541 | 23997 ft | 374 kts | 188° |
| 2026-04-23 16:48 | 0.35455 | 40.03307 | 23997 ft | 375 kts | 188° |
| 2026-04-23 16:48 | 0.32868 | 40.03073 | 23997 ft | 375 kts | 188° |
| 2026-04-23 16:49 | 0.30282 | 40.02839 | 23997 ft | 375 kts | 188° |
| 2026-04-23 16:49 | 0.27695 | 40.02604 | 23997 ft | 375 kts | 188° |
| 2026-04-23 16:49 | 0.25111 | 40.02370 | 23997 ft | 375 kts | 188° |
| 2026-04-23 16:49 | 0.22504 | 40.02134 | 23997 ft | 375 kts | 188° |
| 2026-04-23 16:50 | 0.19915 | 40.01899 | 23997 ft | 375 kts | 188° |
| 2026-04-23 16:50 | 0.17327 | 40.01665 | 23997 ft | 375 kts | 188° |
| 2026-04-23 16:50 | 0.14738 | 40.01431 | 23997 ft | 376 kts | 188° |
| 2026-04-23 16:50 | 0.12148 | 40.01196 | 23997 ft | 376 kts | 188° |
| 2026-04-23 16:51 | 0.09559 | 40.00962 | 23997 ft | 376 kts | 188° |
| 2026-04-23 16:51 | 0.06970 | 40.00727 | 23997 ft | 376 kts | 188° |
| 2026-04-23 16:51 | 0.04362 | 40.00491 | 23997 ft | 376 kts | 188° |
| 2026-04-23 16:51 | 0.01769 | 40.00256 | 23997 ft | 376 kts | 188° |
| 2026-04-23 16:52 | -0.00823 | 40.00021 | 23997 ft | 376 kts | 188° |
| 2026-04-23 16:52 | -0.03418 | 39.99786 | 23988 ft | 376 kts | 188° |
| 2026-04-23 16:52 | -0.06006 | 39.99552 | 23977 ft | 376 kts | 188° |
| 2026-04-23 16:52 | -0.08605 | 39.99316 | 23965 ft | 377 kts | 188° |
| 2026-04-23 16:53 | -0.11206 | 39.99081 | 23952 ft | 377 kts | 188° |
| 2026-04-23 16:53 | -0.13825 | 39.98843 | 23941 ft | 377 kts | 188° |
| 2026-04-23 16:53 | -0.16423 | 39.98608 | 23930 ft | 377 kts | 188° |
| 2026-04-23 16:53 | -0.19024 | 39.98373 | 23927 ft | 377 kts | 188° |
| 2026-04-23 16:54 | -0.21618 | 39.98138 | 23927 ft | 376 kts | 188° |
| 2026-04-23 16:54 | -0.24214 | 39.97903 | 23928 ft | 376 kts | 188° |
| 2026-04-23 16:54 | -0.26806 | 39.97668 | 23929 ft | 376 kts | 188° |
| 2026-04-23 16:54 | -0.29403 | 39.97433 | 23931 ft | 376 kts | 188° |
| 2026-04-23 16:55 | -0.32007 | 39.97197 | 23932 ft | 376 kts | 188° |
| 2026-04-23 16:55 | -0.34596 | 39.96962 | 23929 ft | 376 kts | 188° |
| 2026-04-23 16:55 | -0.37188 | 39.96727 | 23922 ft | 376 kts | 188° |
| 2026-04-23 16:55 | -0.39781 | 39.96492 | 23914 ft | 376 kts | 188° |
| 2026-04-23 16:56 | -0.42374 | 39.96258 | 23906 ft | 376 kts | 188° |
| 2026-04-23 16:56 | -0.44966 | 39.96023 | 23897 ft | 376 kts | 188° |
| 2026-04-23 16:56 | -0.47563 | 39.95788 | 23888 ft | 376 kts | 188° |
| 2026-04-23 16:56 | -0.50179 | 39.95551 | 23882 ft | 376 kts | 188° |
| 2026-04-23 16:57 | -0.52774 | 39.95316 | 23881 ft | 376 kts | 188° |
| 2026-04-23 16:57 | -0.55367 | 39.95081 | 23881 ft | 376 kts | 188° |
| 2026-04-23 16:57 | -0.57961 | 39.94846 | 23881 ft | 376 kts | 188° |
| 2026-04-23 16:57 | -0.60555 | 39.94611 | 23881 ft | 376 kts | 188° |
| 2026-04-23 16:58 | -0.63150 | 39.94376 | 23881 ft | 376 kts | 188° |
| 2026-04-23 16:58 | -0.65737 | 39.94141 | 23881 ft | 376 kts | 188° |
| 2026-04-23 16:58 | -0.68351 | 39.93905 | 23882 ft | 376 kts | 188° |
| 2026-04-23 16:58 | -0.70941 | 39.93670 | 23882 ft | 376 kts | 188° |
| 2026-04-23 16:59 | -0.73528 | 39.93436 | 23882 ft | 376 kts | 188° |
| 2026-04-23 16:59 | -0.76120 | 39.93201 | 23882 ft | 376 kts | 188° |
| 2026-04-23 16:59 | -0.78711 | 39.92966 | 23882 ft | 376 kts | 188° |
| 2026-04-23 16:59 | -0.81299 | 39.92732 | 23882 ft | 376 kts | 188° |
| 2026-04-23 17:00 | -0.83893 | 39.92497 | 23882 ft | 376 kts | 188° |
| 2026-04-23 17:00 | -0.86502 | 39.92260 | 23882 ft | 376 kts | 188° |
| 2026-04-23 17:00 | -0.89095 | 39.92025 | 23882 ft | 376 kts | 188° |
| 2026-04-23 17:00 | -0.91685 | 39.91791 | 23882 ft | 376 kts | 188° |
| 2026-04-23 17:01 | -0.94275 | 39.91556 | 23882 ft | 376 kts | 188° |
| 2026-04-23 17:01 | -0.96862 | 39.91322 | 23882 ft | 376 kts | 188° |
| 2026-04-23 17:01 | -0.99452 | 39.91086 | 23881 ft | 376 kts | 188° |
| 2026-04-23 17:01 | -1.02049 | 39.90850 | 23882 ft | 376 kts | 188° |
| 2026-04-23 17:02 | -1.04662 | 39.90613 | 23882 ft | 377 kts | 188° |
| 2026-04-23 17:02 | -1.07269 | 39.90377 | 23882 ft | 377 kts | 188° |
| 2026-04-23 17:02 | -1.09873 | 39.90141 | 23883 ft | 378 kts | 188° |
| 2026-04-23 17:02 | -1.12454 | 39.89907 | 23880 ft | 379 kts | 187° |
| 2026-04-23 17:03 | -1.15070 | 39.89671 | 23880 ft | 379 kts | 187° |
| 2026-04-23 17:03 | -1.17690 | 39.89434 | 23880 ft | 380 kts | 187° |
| 2026-04-23 17:03 | -1.20311 | 39.89197 | 23880 ft | 380 kts | 187° |
| 2026-04-23 17:03 | -1.22953 | 39.88958 | 23880 ft | 380 kts | 187° |
| 2026-04-23 17:04 | -1.25576 | 39.88720 | 23881 ft | 380 kts | 187° |
| 2026-04-23 17:04 | -1.28201 | 39.88482 | 23881 ft | 381 kts | 187° |
| 2026-04-23 17:04 | -1.30823 | 39.88244 | 23881 ft | 381 kts | 187° |
| 2026-04-23 17:04 | -1.33453 | 39.88006 | 23881 ft | 381 kts | 187° |
| 2026-04-23 17:05 | -1.36085 | 39.87768 | 23881 ft | 381 kts | 187° |
| 2026-04-23 17:05 | -1.38710 | 39.87530 | 23881 ft | 381 kts | 187° |
| 2026-04-23 17:05 | -1.41359 | 39.87290 | 23881 ft | 381 kts | 187° |
| 2026-04-23 17:05 | -1.43988 | 39.87051 | 23881 ft | 381 kts | 187° |
| 2026-04-23 17:06 | -1.46622 | 39.86813 | 23881 ft | 381 kts | 187° |
| 2026-04-23 17:06 | -1.49250 | 39.86574 | 23963 ft | 379 kts | 187° |
| 2026-04-23 17:06 | -1.51857 | 39.86338 | 23990 ft | 379 kts | 187° |
| 2026-04-23 17:06 | -1.54469 | 39.86101 | 23995 ft | 379 kts | 187° |
| 2026-04-23 17:07 | -1.57079 | 39.85865 | 23996 ft | 379 kts | 187° |
| 2026-04-23 17:07 | -1.59711 | 39.85626 | 23996 ft | 379 kts | 187° |
| 2026-04-23 17:07 | -1.62331 | 39.85389 | 23996 ft | 380 kts | 187° |
| 2026-04-23 17:07 | -1.64946 | 39.85152 | 23996 ft | 380 kts | 187° |
| 2026-04-23 17:08 | -1.67564 | 39.84914 | 23997 ft | 380 kts | 187° |
| 2026-04-23 17:08 | -1.70180 | 39.84677 | 23997 ft | 380 kts | 187° |
| 2026-04-23 17:08 | -1.72806 | 39.84439 | 23997 ft | 380 kts | 187° |
| 2026-04-23 17:08 | -1.75425 | 39.84202 | 23997 ft | 380 kts | 187° |
| 2026-04-23 17:09 | -1.78066 | 39.83962 | 23997 ft | 381 kts | 187° |
| 2026-04-23 17:09 | -1.80685 | 39.83725 | 23997 ft | 381 kts | 187° |
| 2026-04-23 17:09 | -1.83307 | 39.83487 | 23997 ft | 381 kts | 187° |
| 2026-04-23 17:09 | -1.85932 | 39.83249 | 23997 ft | 381 kts | 187° |
| 2026-04-23 17:10 | -1.88554 | 39.83011 | 23997 ft | 381 kts | 187° |
| 2026-04-23 17:10 | -1.91178 | 39.82773 | 23997 ft | 381 kts | 187° |
| 2026-04-23 17:10 | -1.93799 | 39.82536 | 23997 ft | 381 kts | 187° |
| 2026-04-23 17:10 | -1.96443 | 39.82296 | 23997 ft | 381 kts | 187° |
| 2026-04-23 17:11 | -1.99068 | 39.82058 | 23997 ft | 381 kts | 187° |
| 2026-04-23 17:11 | -2.01690 | 39.81820 | 23997 ft | 381 kts | 187° |
| 2026-04-23 17:11 | -2.04321 | 39.81581 | 23998 ft | 381 kts | 187° |
| 2026-04-23 17:11 | -2.06944 | 39.81344 | 23998 ft | 381 kts | 187° |
| 2026-04-23 17:12 | -2.09571 | 39.81105 | 23998 ft | 381 kts | 187° |
| 2026-04-23 17:12 | -2.12209 | 39.80866 | 23995 ft | 381 kts | 187° |
| 2026-04-23 17:12 | -2.14856 | 39.80626 | 23994 ft | 381 kts | 187° |
| 2026-04-23 17:12 | -2.17481 | 39.80388 | 23994 ft | 381 kts | 187° |
| 2026-04-23 17:13 | -2.20103 | 39.80150 | 23994 ft | 381 kts | 187° |
| 2026-04-23 17:13 | -2.22728 | 39.79912 | 23995 ft | 381 kts | 187° |
| 2026-04-23 17:13 | -2.25352 | 39.79674 | 23995 ft | 381 kts | 187° |
| 2026-04-23 17:13 | -2.27976 | 39.79436 | 23995 ft | 381 kts | 187° |
| 2026-04-23 17:14 | -2.30599 | 39.79198 | 23995 ft | 381 kts | 187° |
| 2026-04-23 17:14 | -2.33241 | 39.78958 | 23995 ft | 381 kts | 187° |
| 2026-04-23 17:14 | -2.35863 | 39.78720 | 23995 ft | 381 kts | 187° |
| 2026-04-23 17:14 | -2.38482 | 39.78483 | 23995 ft | 381 kts | 187° |
| 2026-04-23 17:15 | -2.41107 | 39.78245 | 23995 ft | 381 kts | 187° |
| 2026-04-23 17:15 | -2.43729 | 39.78007 | 23995 ft | 381 kts | 187° |
| 2026-04-23 17:15 | -2.46354 | 39.77768 | 23995 ft | 381 kts | 187° |
| 2026-04-23 17:15 | -2.48974 | 39.77531 | 23995 ft | 381 kts | 187° |
| 2026-04-23 17:16 | -2.51619 | 39.77291 | 23996 ft | 381 kts | 187° |
| 2026-04-23 17:16 | -2.54237 | 39.77053 | 23996 ft | 381 kts | 187° |
| 2026-04-23 17:16 | -2.56861 | 39.76815 | 23996 ft | 381 kts | 187° |
| 2026-04-23 17:16 | -2.59486 | 39.76577 | 23996 ft | 381 kts | 187° |
| 2026-04-23 17:17 | -2.62106 | 39.76339 | 23996 ft | 381 kts | 187° |
| 2026-04-23 17:17 | -2.64732 | 39.76101 | 23996 ft | 381 kts | 187° |
| 2026-04-23 17:17 | -2.67354 | 39.75863 | 23996 ft | 381 kts | 187° |
| 2026-04-23 17:17 | -2.69999 | 39.75623 | 23996 ft | 381 kts | 187° |
| 2026-04-23 17:18 | -2.75247 | 39.75146 | 23996 ft | 381 kts | 187° |
| 2026-04-23 17:18 | -2.77871 | 39.74908 | 23996 ft | 381 kts | 187° |
| 2026-04-23 17:18 | -2.80494 | 39.74670 | 23996 ft | 381 kts | 187° |
| 2026-04-23 17:19 | -2.83119 | 39.74431 | 23996 ft | 381 kts | 187° |
| 2026-04-23 17:19 | -2.85741 | 39.74193 | 23997 ft | 381 kts | 187° |
| 2026-04-23 17:19 | -2.88387 | 39.73953 | 23997 ft | 381 kts | 187° |
| 2026-04-23 17:19 | -2.91012 | 39.73715 | 23997 ft | 381 kts | 188° |
| 2026-04-23 17:20 | -2.93638 | 39.73477 | 23997 ft | 381 kts | 188° |
| 2026-04-23 17:20 | -2.98880 | 39.73002 | 23997 ft | 380 kts | 188° |
| 2026-04-23 17:21 | -3.04110 | 39.72526 | 23997 ft | 379 kts | 188° |
| 2026-04-23 17:21 | -3.06739 | 39.72287 | 23996 ft | 379 kts | 188° |
| 2026-04-23 17:21 | -3.11964 | 39.71812 | 23987 ft | 378 kts | 188° |
| 2026-04-23 17:22 | -3.14608 | 39.71572 | 23987 ft | 378 kts | 188° |
| 2026-04-23 17:22 | -3.19825 | 39.71098 | 23987 ft | 378 kts | 188° |
| 2026-04-23 17:23 | -3.25058 | 39.70622 | 23987 ft | 378 kts | 188° |
| 2026-04-23 17:23 | -3.27661 | 39.70386 | 23987 ft | 378 kts | 188° |
| 2026-04-23 17:23 | -3.32873 | 39.69912 | 23987 ft | 378 kts | 188° |
| 2026-04-23 17:24 | -3.35484 | 39.69675 | 23988 ft | 378 kts | 188° |
| 2026-04-23 17:24 | -3.38086 | 39.69438 | 23988 ft | 378 kts | 188° |
| 2026-04-23 17:24 | -3.43324 | 39.68962 | 23988 ft | 378 kts | 188° |
| 2026-04-23 17:25 | -3.48523 | 39.69133 | 23986 ft | 385 kts | 160° |
| 2026-04-23 17:25 | -3.50726 | 39.70558 | 23914 ft | 377 kts | 137° |
| 2026-04-23 17:26 | -3.52590 | 39.75194 | 22985 ft | 364 kts | 84° |
| 2026-04-23 17:26 | -3.50313 | 39.79333 | 22105 ft | 338 kts | 30° |
| 2026-04-23 17:27 | -3.46007 | 39.80586 | 21238 ft | 322 kts | 6° |
| 2026-04-23 17:27 | -3.43819 | 39.80947 | 20778 ft | 320 kts | 6° |
| 2026-04-23 17:27 | -3.41641 | 39.81301 | 20317 ft | 318 kts | 6° |
| 2026-04-23 17:27 | -3.39474 | 39.81650 | 19856 ft | 316 kts | 6° |
| 2026-04-23 17:28 | -3.37320 | 39.81983 | 19389 ft | 312 kts | 2° |
| 2026-04-23 17:28 | -3.35249 | 39.81618 | 18914 ft | 301 kts | 332° |
| 2026-04-23 17:28 | -3.33726 | 39.80270 | 18476 ft | 294 kts | 302° |
| 2026-04-23 17:28 | -3.33133 | 39.78356 | 18037 ft | 293 kts | 272° |
| 2026-04-23 17:29 | -3.33629 | 39.76405 | 17600 ft | 295 kts | 242° |
| 2026-04-23 17:29 | -3.34927 | 39.74831 | 17183 ft | 295 kts | 231° |
| 2026-04-23 17:29 | -3.37702 | 39.71844 | 16256 ft | 295 kts | 223° |
| 2026-04-23 17:30 | -3.39373 | 39.70641 | 15805 ft | 295 kts | 218° |
| 2026-04-23 17:30 | -3.43177 | 39.69207 | 14895 ft | 298 kts | 193° |
| 2026-04-23 17:30 | -3.45220 | 39.68885 | 14445 ft | 304 kts | 189° |
| 2026-04-23 17:31 | -3.47345 | 39.68634 | 14008 ft | 315 kts | 188° |
| 2026-04-23 17:31 | -3.49544 | 39.68409 | 13568 ft | 324 kts | 187° |
| 2026-04-23 17:31 | -3.51801 | 39.68195 | 13125 ft | 332 kts | 186° |
| 2026-04-23 17:31 | -3.54133 | 39.67979 | 12675 ft | 339 kts | 186° |
| 2026-04-23 17:32 | -3.56485 | 39.67764 | 12227 ft | 344 kts | 186° |
| 2026-04-23 17:32 | -3.58870 | 39.67547 | 11777 ft | 348 kts | 186° |
| 2026-04-23 17:32 | -3.61282 | 39.67329 | 11327 ft | 352 kts | 186° |
| 2026-04-23 17:32 | -3.63713 | 39.67108 | 10874 ft | 354 kts | 186° |
| 2026-04-23 17:33 | -3.66154 | 39.66886 | 10420 ft | 355 kts | 186° |
| 2026-04-23 17:33 | -3.68605 | 39.66663 | 9965 ft | 355 kts | 186° |
| 2026-04-23 17:33 | -3.71049 | 39.66440 | 9499 ft | 348 kts | 186° |
| 2026-04-23 17:33 | -3.73405 | 39.66227 | 9029 ft | 337 kts | 186° |
| 2026-04-23 17:34 | -3.75694 | 39.66018 | 8558 ft | 327 kts | 186° |
| 2026-04-23 17:34 | -3.77912 | 39.65817 | 8225 ft | 314 kts | 186° |
| 2026-04-23 17:34 | -3.82147 | 39.65431 | 7268 ft | 299 kts | 186° |
| 2026-04-23 17:35 | -3.84177 | 39.65246 | 6798 ft | 291 kts | 186° |
| 2026-04-23 17:35 | -3.88112 | 39.64888 | 5858 ft | 278 kts | 186° |
| 2026-04-23 17:35 | -3.90003 | 39.64716 | 5391 ft | 273 kts | 186° |
| 2026-04-23 17:36 | -3.91864 | 39.64547 | 4924 ft | 267 kts | 185° |
| 2026-04-23 17:36 | -3.93690 | 39.64389 | 4458 ft | 263 kts | 184° |
| 2026-04-23 17:36 | -3.95450 | 39.64493 | 4260 ft | 246 kts | 169° |
| 2026-04-23 17:36 | -3.96959 | 39.65198 | 3797 ft | 245 kts | 136° |
| 2026-04-23 17:37 | -3.97798 | 39.66631 | 3438 ft | 234 kts | 99° |
| 2026-04-23 17:37 | -3.97614 | 39.68085 | 3246 ft | 213 kts | 60° |
| 2026-04-23 17:37 | -3.95082 | 39.68962 | 2392 ft | 214 kts | 338° |
| 2026-04-23 17:38 | -3.93918 | 39.68126 | 2120 ft | 211 kts | 306° |
| 2026-04-23 17:38 | -3.93389 | 39.66793 | 1829 ft | 209 kts | 271° |
| 2026-04-23 17:38 | -3.93663 | 39.65395 | 1543 ft | 207 kts | 256° |
| 2026-04-23 17:38 | -3.94364 | 39.64135 | 1114 ft | 210 kts | 216° |
| 2026-04-23 17:39 | -3.95626 | 39.63685 | 1287 ft | 184 kts | 189° |
| 2026-04-23 17:39 | -3.96774 | 39.63255 | 1287 ft | 168 kts | 210° |
| 2026-04-23 17:39 | -3.97728 | 39.62690 | 1139 ft | 155 kts | 214° |
| 2026-04-23 17:39 | -3.98634 | 39.62108 | 755 ft | 153 kts | 211° |
| 2026-04-23 17:40 | -3.99506 | 39.61667 | 691 ft | 135 kts | 208° |
| 2026-04-23 17:40 | -4.00314 | 39.61200 | 435 ft | 132 kts | 209° |
| 2026-04-23 17:40 | -4.01103 | 39.60760 | 254 ft | 126 kts | 208° |
| 2026-04-23 17:40 | -4.01834 | 39.60342 | 199 ft | 107 kts | 207° |
| 2026-04-23 17:41 | -4.02376 | 39.60044 | 197 ft | 72 kts | 209° |
| 2026-04-23 17:41 | -4.02785 | 39.59975 | 200 ft | 21 kts | 144° |
| 2026-04-23 17:41 | -4.02890 | 39.60059 | 208 ft | 17 kts | 151° |
| 2026-04-23 17:42 | -4.02939 | 39.60085 | 212 ft | 0 kts | 151° |